CW5670 Coupeville WA US current weather conditions

sailwx.info

Wind from 252 at 1 knots gusting 2

Air temperature 17.8° C
Dewpoint 14.3° C

Last reported at 2020-Aug-04 04:05 UTC.
Time now 2020-Aug-04 05:13 UTC

Location: N 48°13' W 122°41'.
View on Google Maps.

See reports from other nearby stations

  
Tides and Currents Weather Stations Pressure Air Temp Water Temp Dewpoint Dewpoint Depression Visibility Wind Speed Wind Dir Waves Ship Positions
date/time (UTC)wind fromknots sea level pressurealtimeterstation pressurevisibilityair tempwater tempwave heightnotes
2020-Aug-04 04:05 252 1 gusting 2 17.8
2020-Aug-04 03:45 300 2 gusting 4 17.8
2020-Aug-04 03:15 286 4 gusting 7 17.8
2020-Aug-04 03:05 276 4 gusting 7 18.3
2020-Aug-04 02:35 285 5 gusting 8 19.4
2020-Aug-04 02:15 282 5 gusting 11 20.0
2020-Aug-04 02:05 267 5 gusting 8 20.0
2020-Aug-04 01:35 270 4 gusting 7 21.1
2020-Aug-04 01:10 298 4 gusting 10 21.7
2020-Aug-04 01:05 293 5 gusting 8 22.2
2020-Aug-04 01:00 302 4 gusting 10 22.2
2020-Aug-04 00:45 284 5 gusting 10 21.7
2020-Aug-04 00:40 296 5 gusting 10 21.7
2020-Aug-04 00:35 290 6 gusting 10 22.2
2020-Aug-04 00:15 277 4 gusting 8 22.2
2020-Aug-04 00:05 293 5 gusting 10 22.2
2020-Aug-03 23:45 285 6 gusting 10 21.7
2020-Aug-03 23:35 291 5 gusting 10 21.7
2020-Aug-03 23:10 285 6 gusting 10 22.8
2020-Aug-03 23:05 274 6 gusting 10 23.3
2020-Aug-03 22:45 266 3 gusting 6 23.3
2020-Aug-03 22:40 275 3 gusting 6 23.3
2020-Aug-03 22:35 284 5 gusting 8 22.8
2020-Aug-03 22:15 280 6 gusting 10 22.2
2020-Aug-03 22:05 285 7 gusting 10 22.2
2020-Aug-03 22:00 294 5 gusting 11 22.2
2020-Aug-03 21:40 280 6 gusting 13 21.7
2020-Aug-03 21:35 287 6 gusting 10 21.7
2020-Aug-03 21:15 294 6 gusting 11 22.2
2020-Aug-03 21:10 277 6 gusting 10 22.8
2020-Aug-03 21:05 284 5 gusting 10 23.3
2020-Aug-03 20:35 347 1 gusting 2 23.9
2020-Aug-03 20:15 040 2 gusting 4 21.7
2020-Aug-03 20:05 031 3 gusting 4 21.7
2020-Aug-03 20:00 037 4 gusting 6 21.7
2020-Aug-03 19:45 042 5 gusting 7 20.6
2020-Aug-03 19:40 042 4 gusting 6 20.6
2020-Aug-03 19:35 039 3 gusting 5 20.6
2020-Aug-03 19:05 038 3 gusting 4 21.1
2020-Aug-03 18:45 014 2 gusting 2 20.6
2020-Aug-03 18:40 355 2 gusting 5 20.6
2020-Aug-03 18:35 019 1 gusting 4 20.6
2020-Aug-03 18:15 068 1 gusting 2 21.7
2020-Aug-03 18:05 203 1 gusting 6 21.1
2020-Aug-03 17:45 196 1 gusting 4 20.0
2020-Aug-03 17:30 149 2 gusting 6 20.0
2020-Aug-03 17:15 181 2 gusting 8 19.4
2020-Aug-03 17:00 147 3 gusting 13 19.4
2020-Aug-03 16:40 200 2 gusting 10 18.9
2020-Aug-03 16:35 190 3 gusting 10 18.9
2020-Aug-03 16:15 168 3 gusting 10 18.9
2020-Aug-03 16:00 168 2 gusting 8 18.9
2020-Aug-03 15:45 167 3 gusting 7 18.3
2020-Aug-03 15:35 150 3 gusting 6 17.8
2020-Aug-03 15:10 168 3 gusting 8 17.2
2020-Aug-03 15:05 175 4 gusting 6 17.2
2020-Aug-03 15:00 151 3 gusting 7 17.2
2020-Aug-03 14:45 154 2 gusting 5 16.7
2020-Aug-03 14:35 160 0 gusting 2 16.7
2020-Aug-03 14:15 148 1 gusting 5 16.7
2020-Aug-03 14:00 180 0 gusting 2 16.7
2020-Aug-03 13:45 204 16.7
2020-Aug-03 13:35 204 1 gusting 2 16.7
2020-Aug-03 13:15 218 0 gusting 2 16.7
2020-Aug-03 13:05 212 0 gusting 2 16.7
2020-Aug-03 12:45 209 1 gusting 2 16.7
2020-Aug-03 12:15 198 0 gusting 2 16.7
2020-Aug-03 12:00 242 1 gusting 2 16.7
2020-Aug-03 11:40 269 0 gusting 1 16.7
2020-Aug-03 11:35 269 16.7
2020-Aug-03 11:15 336 0 gusting 2 16.7
2020-Aug-03 11:05 271 1 gusting 2 16.7
2020-Aug-03 10:45 260 1 gusting 7 16.7
2020-Aug-03 10:35 258 2 gusting 5 16.7
2020-Aug-03 10:05 274 1 gusting 4 16.7
2020-Aug-03 09:45 277 4 gusting 10 16.7
2020-Aug-03 09:35 266 4 gusting 7 16.7
2020-Aug-03 09:15 252 4 gusting 10 16.7
2020-Aug-03 09:05 263 16.1
2020-Aug-03 08:45 280 2 gusting 8 16.1
2020-Aug-03 08:35 270 4 gusting 6 16.1
2020-Aug-03 08:10 250 1 gusting 4 16.7
2020-Aug-03 08:05 292 1 gusting 4 16.7
2020-Aug-03 07:45 263 5 gusting 10 16.7
2020-Aug-03 07:10 299 4 gusting 7 16.7
2020-Aug-03 07:00 274 2 gusting 8 17.2
2020-Aug-03 06:45 271 3 gusting 7 17.2
2020-Aug-03 06:35 277 3 gusting 8 17.2
2020-Aug-03 06:15 264 3 gusting 7 17.2
2020-Aug-03 06:00 297 2 gusting 5 17.2
2020-Aug-03 05:45 248 3 gusting 8 17.2
2020-Aug-03 05:35 267 17.2
2020-Aug-03 05:15 268 2 gusting 6 18.3
2020-Aug-03 05:05 300 2 gusting 5 18.3
2020-Aug-03 04:40 249 8 gusting 14 18.3
2020-Aug-03 04:15 263 6 gusting 11 18.3
2020-Aug-03 04:05 244 5 gusting 10 18.3
2020-Aug-03 03:35 267 6 gusting 10 18.3
2020-Aug-03 03:10 255 5 gusting 10 18.3
2020-Aug-03 03:00 252 6 gusting 13 18.9
2020-Aug-03 02:45 258 6 gusting 10 18.9
2020-Aug-03 02:40 261 4 gusting 8 19.4
2020-Aug-03 02:35 263 5 gusting 8 19.4
2020-Aug-03 02:15 257 4 gusting 10 19.4
2020-Aug-03 02:05 271 6 gusting 11 20.0
2020-Aug-03 01:45 278 3 gusting 10 19.4
2020-Aug-03 01:35 278 5 gusting 8 19.4
2020-Aug-03 01:15 286 5 gusting 10 20.6
2020-Aug-03 01:05 289 4 gusting 7 21.1
2020-Aug-03 00:45 282 6 gusting 10 22.2
2020-Aug-03 00:35 278 4 gusting 7 22.8
2020-Aug-03 00:15 274 2 gusting 5 22.2
2020-Aug-03 00:10 291 2 gusting 6 21.7
2020-Aug-03 00:05 272 4 gusting 6 21.7
2020-Aug-02 23:45 293 5 gusting 8 21.1
2020-Aug-02 23:30 292 4 gusting 11 21.1
2020-Aug-02 23:10 282 5 gusting 8 20.6
2020-Aug-02 23:00 287 6 gusting 11 20.6
2020-Aug-02 22:40 289 3 gusting 6 20.6
2020-Aug-02 22:15 280 4 gusting 8 20.6
2020-Aug-02 22:05 281 6 gusting 10 20.6
2020-Aug-02 22:00 291 6 gusting 11 21.1
2020-Aug-02 21:45 256 4 gusting 10 21.7
2020-Aug-02 21:35 278 4 gusting 10 21.1
2020-Aug-02 21:15 273 5 gusting 8 22.2
2020-Aug-02 20:45 261 2 gusting 6 20.6
2020-Aug-02 20:35 280 4 gusting 7 20.6
2020-Aug-02 19:30 326 2 gusting 4 21.1
2020-Aug-02 19:15 012 2 gusting 4 20.0
2020-Aug-02 19:10 037 2 gusting 4 19.4
2020-Aug-02 19:05 029 3 gusting 6 19.4
2020-Aug-02 18:45 041 4 gusting 6 19.4
2020-Aug-02 18:35 039 4 gusting 5 19.4
2020-Aug-02 18:10 084 2 gusting 5 20.0
2020-Aug-02 18:05 042 1 gusting 2 19.4
2020-Aug-02 17:45 240 4 gusting 6 19.4
2020-Aug-02 17:30 029 0 gusting 2 18.9
2020-Aug-02 17:15 036 2 gusting 4 17.8
2020-Aug-02 17:00 042 1 gusting 4 17.8
2020-Aug-02 16:45 030 2 gusting 4 17.2
2020-Aug-02 16:35 047 1 gusting 2 17.8
2020-Aug-02 16:05 035 2 gusting 2 17.8
2020-Aug-02 15:45 065 0 gusting 2 18.3
2020-Aug-02 15:35 180 0 gusting 2 17.8
2020-Aug-02 15:15 211 1 gusting 2 16.7
2020-Aug-02 15:05 188 0 gusting 1 16.7
2020-Aug-02 14:35 216 1 gusting 2 15.0
2020-Aug-02 14:15 198 0 gusting 2 15.0
2020-Aug-02 14:05 175 2 gusting 4 14.4
2020-Aug-02 13:45 178 1 gusting 2 13.9
2020-Aug-02 13:30 150 1 gusting 4 13.9
2020-Aug-02 13:15 182 1 gusting 2 13.9
2020-Aug-02 13:05 168 1 gusting 4 13.9
2020-Aug-02 12:40 173 1 gusting 4 13.9
2020-Aug-02 12:35 163 2 gusting 4 13.9
2020-Aug-02 12:15 190 1 gusting 2 14.4
2020-Aug-02 11:45 244 15.0
2020-Aug-02 11:30 244 15.6
2020-Aug-02 11:15 244 15.6
2020-Aug-02 11:05 244 0 gusting 1 15.6
2020-Aug-02 10:35 223 0 gusting 4 15.6
2020-Aug-02 10:15 240 4 gusting 7 16.1
2020-Aug-02 10:05 237 2 gusting 5 15.6
2020-Aug-02 09:40 233 4 gusting 7 16.1
2020-Aug-02 09:35 232 4 gusting 7 16.1
2020-Aug-02 09:15 225 2 gusting 6 16.1
2020-Aug-02 09:00 243 4 gusting 10 16.1
2020-Aug-02 08:45 269 4 gusting 10 16.1
2020-Aug-02 08:35 264 4 gusting 12 16.1
2020-Aug-02 08:15 257 6 gusting 13 16.1
2020-Aug-02 08:05 274 8 gusting 17 16.1
2020-Aug-02 07:45 261 8 gusting 13 16.1
2020-Aug-02 07:40 257 7 gusting 12 16.1
2020-Aug-02 07:15 251 8 gusting 15 16.1
2020-Aug-02 07:10 261 10 gusting 19 16.1
2020-Aug-02 07:05 254 9 gusting 19 16.1
2020-Aug-02 06:35 261 9 gusting 15 16.1
2020-Aug-02 06:30 270 8 gusting 15 16.1
2020-Aug-02 06:15 262 6 gusting 13 15.6
2020-Aug-02 06:10 270 8 gusting 13 15.6
2020-Aug-02 06:00 273 7 gusting 15 16.1
2020-Aug-02 05:40 264 7 gusting 14 16.1
2020-Aug-02 05:30 262 6 gusting 13 16.1
2020-Aug-02 05:15 262 4 gusting 11 16.1
2020-Aug-02 05:10 251 6 gusting 13 16.1
2020-Aug-02 05:05 266 4 gusting 8 16.1
2020-Aug-02 05:00 301 2 gusting 12 16.1